sensor_id;sensor_type;location;lat;lon;timestamp;temperature;humidity
35111;DHT22;21290;50.158;8.658;2023-02-28T00:00:17;0.20;99.90
35111;DHT22;21290;50.158;8.658;2023-02-28T00:02:44;0.20;99.90
35111;DHT22;21290;50.158;8.658;2023-02-28T00:05:13;0.20;99.90
35111;DHT22;21290;50.158;8.658;2023-02-28T00:07:40;0.10;99.90
35111;DHT22;21290;50.158;8.658;2023-02-28T00:10:11;0.10;99.90
35111;DHT22;21290;50.158;8.658;2023-02-28T00:12:38;0.00;99.90
35111;DHT22;21290;50.158;8.658;2023-02-28T00:15:07;0.00;99.90
35111;DHT22;21290;50.158;8.658;2023-02-28T00:17:34;0.00;99.90
35111;DHT22;21290;50.158;8.658;2023-02-28T00:20:01;0.00;99.90
35111;DHT22;21290;50.158;8.658;2023-02-28T00:22:40;-0.10;99.90
35111;DHT22;21290;50.158;8.658;2023-02-28T00:25:12;-0.10;99.90
35111;DHT22;21290;50.158;8.658;2023-02-28T00:27:40;-0.20;99.90
35111;DHT22;21290;50.158;8.658;2023-02-28T00:30:10;-0.30;99.90
35111;DHT22;21290;50.158;8.658;2023-02-28T00:32:37;-0.20;99.90
35111;DHT22;21290;50.158;8.658;2023-02-28T00:35:04;-0.30;99.90
35111;DHT22;21290;50.158;8.658;2023-02-28T00:37:31;-0.30;99.90
35111;DHT22;21290;50.158;8.658;2023-02-28T00:39:58;-0.40;99.90
35111;DHT22;21290;50.158;8.658;2023-02-28T00:42:24;-0.40;99.90
35111;DHT22;21290;50.158;8.658;2023-02-28T00:44:51;-0.40;99.90
35111;DHT22;21290;50.158;8.658;2023-02-28T00:47:18;-0.50;99.90
35111;DHT22;21290;50.158;8.658;2023-02-28T00:49:44;-0.50;99.90
35111;DHT22;21290;50.158;8.658;2023-02-28T00:52:11;-0.50;99.90
35111;DHT22;21290;50.158;8.658;2023-02-28T00:54:37;-0.50;99.90
35111;DHT22;21290;50.158;8.658;2023-02-28T00:57:04;-0.50;99.90
35111;DHT22;21290;50.158;8.658;2023-02-28T00:59:31;-0.50;99.90
35111;DHT22;21290;50.158;8.658;2023-02-28T01:01:57;-0.60;99.90
35111;DHT22;21290;50.158;8.658;2023-02-28T01:04:24;-0.60;99.90
35111;DHT22;21290;50.158;8.658;2023-02-28T01:06:51;-0.50;99.90
35111;DHT22;21290;50.158;8.658;2023-02-28T01:09:17;-0.60;99.90
35111;DHT22;21290;50.158;8.658;2023-02-28T01:11:44;-0.60;99.90
35111;DHT22;21290;50.158;8.658;2023-02-28T01:14:15;-0.60;99.90
35111;DHT22;21290;50.158;8.658;2023-02-28T01:16:42;-0.60;99.90
35111;DHT22;21290;50.158;8.658;2023-02-28T01:19:09;-0.60;99.90
35111;DHT22;21290;50.158;8.658;2023-02-28T01:21:36;-0.60;99.90
35111;DHT22;21290;50.158;8.658;2023-02-28T01:24:03;-0.70;99.90
35111;DHT22;21290;50.158;8.658;2023-02-28T01:26:30;-0.70;99.90
35111;DHT22;21290;50.158;8.658;2023-02-28T01:28:58;-0.70;99.90
35111;DHT22;21290;50.158;8.658;2023-02-28T01:31:25;-0.80;99.90
35111;DHT22;21290;50.158;8.658;2023-02-28T01:33:52;-0.80;99.90
35111;DHT22;21290;50.158;8.658;2023-02-28T01:36:21;-0.80;99.90
35111;DHT22;21290;50.158;8.658;2023-02-28T01:38:49;-0.90;99.90
35111;DHT22;21290;50.158;8.658;2023-02-28T01:41:27;-0.90;99.90
35111;DHT22;21290;50.158;8.658;2023-02-28T01:46:26;-1.00;99.90
35111;DHT22;21290;50.158;8.658;2023-02-28T01:49:05;-1.00;99.90
35111;DHT22;21290;50.158;8.658;2023-02-28T01:51:39;-1.00;99.90
35111;DHT22;21290;50.158;8.658;2023-02-28T01:54:16;-1.10;99.90
35111;DHT22;21290;50.158;8.658;2023-02-28T01:56:59;-1.10;99.90
35111;DHT22;21290;50.158;8.658;2023-02-28T01:59:36;-1.00;99.90
35111;DHT22;21290;50.158;8.658;2023-02-28T02:02:06;-1.10;99.90
35111;DHT22;21290;50.158;8.658;2023-02-28T02:04:39;-1.10;99.90
35111;DHT22;21290;50.158;8.658;2023-02-28T02:07:07;-1.10;99.90
35111;DHT22;21290;50.158;8.658;2023-02-28T02:09:34;-1.10;99.90
35111;DHT22;21290;50.158;8.658;2023-02-28T02:12:12;-1.10;99.90
35111;DHT22;21290;50.158;8.658;2023-02-28T02:14:58;-1.10;99.90
35111;DHT22;21290;50.158;8.658;2023-02-28T02:17:38;-1.10;99.90
35111;DHT22;21290;50.158;8.658;2023-02-28T02:20:29;-1.20;99.90
35111;DHT22;21290;50.158;8.658;2023-02-28T02:26:13;-1.20;99.90
35111;DHT22;21290;50.158;8.658;2023-02-28T02:29:16;-1.20;99.90
35111;DHT22;21290;50.158;8.658;2023-02-28T02:34:35;-1.30;99.90
35111;DHT22;21290;50.158;8.658;2023-02-28T02:40:11;-1.30;99.90
35111;DHT22;21290;50.158;8.658;2023-02-28T02:45:49;-1.40;99.90
35111;DHT22;21290;50.158;8.658;2023-02-28T02:48:20;-1.40;99.90
35111;DHT22;21290;50.158;8.658;2023-02-28T02:50:52;-1.40;99.90
35111;DHT22;21290;50.158;8.658;2023-02-28T02:53:27;-1.50;99.90
35111;DHT22;21290;50.158;8.658;2023-02-28T02:55:55;-1.50;99.90
35111;DHT22;21290;50.158;8.658;2023-02-28T02:58:26;-1.50;99.90
35111;DHT22;21290;50.158;8.658;2023-02-28T03:00:59;-1.60;99.90
35111;DHT22;21290;50.158;8.658;2023-02-28T03:03:28;-1.60;99.90
35111;DHT22;21290;50.158;8.658;2023-02-28T03:05:58;-1.60;99.90
35111;DHT22;21290;50.158;8.658;2023-02-28T03:08:25;-1.70;99.90
35111;DHT22;21290;50.158;8.658;2023-02-28T03:10:57;-1.70;99.90
35111;DHT22;21290;50.158;8.658;2023-02-28T03:13:47;-1.70;99.90
35111;DHT22;21290;50.158;8.658;2023-02-28T03:22:05;-1.70;99.90
35111;DHT22;21290;50.158;8.658;2023-02-28T03:24:41;-1.70;99.90
35111;DHT22;21290;50.158;8.658;2023-02-28T03:36:45;-1.80;99.90
35111;DHT22;21290;50.158;8.658;2023-02-28T03:39:36;-1.90;99.90
35111;DHT22;21290;50.158;8.658;2023-02-28T03:42:23;-1.90;99.90
35111;DHT22;21290;50.158;8.658;2023-02-28T03:44:58;-1.90;99.90
35111;DHT22;21290;50.158;8.658;2023-02-28T03:50:10;-1.90;99.90
35111;DHT22;21290;50.158;8.658;2023-02-28T03:53:02;-1.90;99.90
35111;DHT22;21290;50.158;8.658;2023-02-28T03:55:37;-1.90;99.90
35111;DHT22;21290;50.158;8.658;2023-02-28T03:58:17;-1.90;99.90
35111;DHT22;21290;50.158;8.658;2023-02-28T04:00:50;-1.90;99.90
35111;DHT22;21290;50.158;8.658;2023-02-28T04:03:19;-1.90;99.90
35111;DHT22;21290;50.158;8.658;2023-02-28T04:05:54;-1.90;99.90
35111;DHT22;21290;50.158;8.658;2023-02-28T04:08:22;-1.90;99.90
35111;DHT22;21290;50.158;8.658;2023-02-28T04:11:35;-1.80;99.90
35111;DHT22;21290;50.158;8.658;2023-02-28T04:13:55;-1.80;99.90
35111;DHT22;21290;50.158;8.658;2023-02-28T04:16:22;-1.80;99.90
35111;DHT22;21290;50.158;8.658;2023-02-28T04:19:05;-1.80;99.90
35111;DHT22;21290;50.158;8.658;2023-02-28T04:21:34;-1.90;99.90
35111;DHT22;21290;50.158;8.658;2023-02-28T04:24:02;-1.90;99.90
35111;DHT22;21290;50.158;8.658;2023-02-28T04:26:33;-1.90;99.90
35111;DHT22;21290;50.158;8.658;2023-02-28T04:29:01;-1.90;99.90
35111;DHT22;21290;50.158;8.658;2023-02-28T04:31:28;-1.90;99.90
35111;DHT22;21290;50.158;8.658;2023-02-28T04:33:55;-1.90;99.90
35111;DHT22;21290;50.158;8.658;2023-02-28T04:36:21;-1.90;99.90
35111;DHT22;21290;50.158;8.658;2023-02-28T04:38:49;-1.90;99.90
35111;DHT22;21290;50.158;8.658;2023-02-28T04:41:16;-1.90;99.90
35111;DHT22;21290;50.158;8.658;2023-02-28T04:43:43;-1.80;99.90
35111;DHT22;21290;50.158;8.658;2023-02-28T04:46:10;-1.70;99.90
35111;DHT22;21290;50.158;8.658;2023-02-28T04:48:37;-1.60;99.90
35111;DHT22;21290;50.158;8.658;2023-02-28T04:51:07;-1.60;99.90
35111;DHT22;21290;50.158;8.658;2023-02-28T04:53:39;-1.50;99.90
35111;DHT22;21290;50.158;8.658;2023-02-28T04:56:06;-1.40;99.90
35111;DHT22;21290;50.158;8.658;2023-02-28T04:58:34;-1.40;99.90
35111;DHT22;21290;50.158;8.658;2023-02-28T05:01:06;-1.30;99.90
35111;DHT22;21290;50.158;8.658;2023-02-28T05:03:39;-1.30;99.90
35111;DHT22;21290;50.158;8.658;2023-02-28T05:06:10;-1.20;99.90
35111;DHT22;21290;50.158;8.658;2023-02-28T05:08:36;-1.10;99.90
35111;DHT22;21290;50.158;8.658;2023-02-28T05:11:05;-1.10;99.90
35111;DHT22;21290;50.158;8.658;2023-02-28T05:13:32;-1.10;99.90
35111;DHT22;21290;50.158;8.658;2023-02-28T05:15:58;-1.00;99.90
35111;DHT22;21290;50.158;8.658;2023-02-28T05:18:25;-1.00;99.90
35111;DHT22;21290;50.158;8.658;2023-02-28T05:20:51;-1.00;99.90
35111;DHT22;21290;50.158;8.658;2023-02-28T05:23:19;-1.00;99.90
35111;DHT22;21290;50.158;8.658;2023-02-28T05:25:47;-1.00;99.90
35111;DHT22;21290;50.158;8.658;2023-02-28T05:28:14;-0.90;99.90
35111;DHT22;21290;50.158;8.658;2023-02-28T05:30:40;-1.00;99.90
35111;DHT22;21290;50.158;8.658;2023-02-28T05:33:11;-1.00;99.90
35111;DHT22;21290;50.158;8.658;2023-02-28T05:35:41;-1.00;99.90
35111;DHT22;21290;50.158;8.658;2023-02-28T05:38:11;-0.90;99.90
35111;DHT22;21290;50.158;8.658;2023-02-28T05:40:40;-1.00;99.90
35111;DHT22;21290;50.158;8.658;2023-02-28T05:43:10;-1.00;99.90
35111;DHT22;21290;50.158;8.658;2023-02-28T05:45:37;-1.00;99.90
35111;DHT22;21290;50.158;8.658;2023-02-28T05:48:03;-0.90;99.90
35111;DHT22;21290;50.158;8.658;2023-02-28T05:50:30;-1.00;99.90
35111;DHT22;21290;50.158;8.658;2023-02-28T05:52:57;-1.10;99.90
35111;DHT22;21290;50.158;8.658;2023-02-28T05:55:23;-1.00;99.90
35111;DHT22;21290;50.158;8.658;2023-02-28T05:57:50;-1.10;99.90
35111;DHT22;21290;50.158;8.658;2023-02-28T06:00:17;-1.10;99.90
35111;DHT22;21290;50.158;8.658;2023-02-28T06:02:44;-1.10;99.90
35111;DHT22;21290;50.158;8.658;2023-02-28T06:05:15;-1.20;99.90
35111;DHT22;21290;50.158;8.658;2023-02-28T06:07:43;-1.10;99.90
35111;DHT22;21290;50.158;8.658;2023-02-28T06:10:11;-1.10;99.90
35111;DHT22;21290;50.158;8.658;2023-02-28T06:12:38;-1.20;99.90
35111;DHT22;21290;50.158;8.658;2023-02-28T06:15:05;-1.20;99.90
35111;DHT22;21290;50.158;8.658;2023-02-28T06:17:32;-1.20;99.90
35111;DHT22;21290;50.158;8.658;2023-02-28T06:19:59;-1.30;99.90
35111;DHT22;21290;50.158;8.658;2023-02-28T06:22:25;-1.30;99.90
35111;DHT22;21290;50.158;8.658;2023-02-28T06:24:52;-1.20;99.90
35111;DHT22;21290;50.158;8.658;2023-02-28T06:27:19;-1.10;99.90
35111;DHT22;21290;50.158;8.658;2023-02-28T06:29:46;-1.10;99.90
35111;DHT22;21290;50.158;8.658;2023-02-28T06:32:13;-1.10;99.90
35111;DHT22;21290;50.158;8.658;2023-02-28T06:34:40;-1.00;99.90
35111;DHT22;21290;50.158;8.658;2023-02-28T06:37:06;-1.00;99.90
35111;DHT22;21290;50.158;8.658;2023-02-28T06:39:33;-0.80;99.90
35111;DHT22;21290;50.158;8.658;2023-02-28T06:42:00;-0.70;99.90
35111;DHT22;21290;50.158;8.658;2023-02-28T06:44:27;-0.50;99.90
35111;DHT22;21290;50.158;8.658;2023-02-28T06:46:53;-0.30;99.90
35111;DHT22;21290;50.158;8.658;2023-02-28T06:49:20;-0.20;99.90
35111;DHT22;21290;50.158;8.658;2023-02-28T06:51:46;0.20;99.90
35111;DHT22;21290;50.158;8.658;2023-02-28T06:54:13;0.50;99.90
35111;DHT22;21290;50.158;8.658;2023-02-28T06:56:40;1.00;99.90
35111;DHT22;21290;50.158;8.658;2023-02-28T06:59:06;1.40;99.90
35111;DHT22;21290;50.158;8.658;2023-02-28T07:01:33;1.70;99.90
35111;DHT22;21290;50.158;8.658;2023-02-28T07:04:00;2.10;99.90
35111;DHT22;21290;50.158;8.658;2023-02-28T07:06:27;2.80;99.90
35111;DHT22;21290;50.158;8.658;2023-02-28T07:08:54;3.60;99.90
35111;DHT22;21290;50.158;8.658;2023-02-28T07:11:23;4.20;99.90
35111;DHT22;21290;50.158;8.658;2023-02-28T07:13:52;4.50;99.90
35111;DHT22;21290;50.158;8.658;2023-02-28T07:16:21;4.80;99.90
35111;DHT22;21290;50.158;8.658;2023-02-28T07:18:48;5.40;99.90
35111;DHT22;21290;50.158;8.658;2023-02-28T07:21:15;6.40;99.20
35111;DHT22;21290;50.158;8.658;2023-02-28T07:23:42;7.40;96.30
35111;DHT22;21290;50.158;8.658;2023-02-28T07:26:15;7.70;94.90
35111;DHT22;21290;50.158;8.658;2023-02-28T07:28:43;8.50;92.90
35111;DHT22;21290;50.158;8.658;2023-02-28T07:31:10;9.30;90.70
35111;DHT22;21290;50.158;8.658;2023-02-28T07:33:37;10.40;87.20
35111;DHT22;21290;50.158;8.658;2023-02-28T07:36:09;11.50;80.50
35111;DHT22;21290;50.158;8.658;2023-02-28T07:38:43;12.10;75.80
35111;DHT22;21290;50.158;8.658;2023-02-28T07:41:15;12.40;72.70
35111;DHT22;21290;50.158;8.658;2023-02-28T07:43:42;12.30;71.80
35111;DHT22;21290;50.158;8.658;2023-02-28T07:46:11;11.70;72.40
35111;DHT22;21290;50.158;8.658;2023-02-28T07:48:38;10.80;73.40
35111;DHT22;21290;50.158;8.658;2023-02-28T07:51:05;10.30;75.40
35111;DHT22;21290;50.158;8.658;2023-02-28T07:53:31;9.90;76.60
35111;DHT22;21290;50.158;8.658;2023-02-28T07:55:59;10.00;77.60
35111;DHT22;21290;50.158;8.658;2023-02-28T07:58:29;10.50;76.60
35111;DHT22;21290;50.158;8.658;2023-02-28T08:00:56;11.30;74.20
35111;DHT22;21290;50.158;8.658;2023-02-28T08:03:24;12.40;70.80
35111;DHT22;21290;50.158;8.658;2023-02-28T08:05:50;13.60;66.70
35111;DHT22;21290;50.158;8.658;2023-02-28T08:08:18;14.30;63.70
35111;DHT22;21290;50.158;8.658;2023-02-28T08:10:45;15.40;61.10
35111;DHT22;21290;50.158;8.658;2023-02-28T08:13:12;15.80;58.80
35111;DHT22;21290;50.158;8.658;2023-02-28T08:15:41;16.70;56.90
35111;DHT22;21290;50.158;8.658;2023-02-28T08:18:08;17.10;54.70
35111;DHT22;21290;50.158;8.658;2023-02-28T08:20:35;17.20;53.60
35111;DHT22;21290;50.158;8.658;2023-02-28T08:23:02;18.00;51.80
35111;DHT22;21290;50.158;8.658;2023-02-28T08:25:29;18.60;50.70
35111;DHT22;21290;50.158;8.658;2023-02-28T08:27:55;19.00;49.50
35111;DHT22;21290;50.158;8.658;2023-02-28T08:30:22;18.90;49.10
35111;DHT22;21290;50.158;8.658;2023-02-28T08:32:49;18.60;47.30
35111;DHT22;21290;50.158;8.658;2023-02-28T08:35:15;18.60;47.50
35111;DHT22;21290;50.158;8.658;2023-02-28T08:37:42;19.00;46.90
35111;DHT22;21290;50.158;8.658;2023-02-28T08:40:09;19.60;44.50
35111;DHT22;21290;50.158;8.658;2023-02-28T08:42:36;19.80;44.30
35111;DHT22;21290;50.158;8.658;2023-02-28T08:45:04;20.00;43.10
35111;DHT22;21290;50.158;8.658;2023-02-28T08:47:32;20.20;42.60
35111;DHT22;21290;50.158;8.658;2023-02-28T08:49:58;20.50;42.10
35111;DHT22;21290;50.158;8.658;2023-02-28T08:52:25;20.30;40.90
35111;DHT22;21290;50.158;8.658;2023-02-28T08:54:51;20.30;40.60
35111;DHT22;21290;50.158;8.658;2023-02-28T08:57:18;20.70;41.10
35111;DHT22;21290;50.158;8.658;2023-02-28T08:59:45;20.80;40.00
35111;DHT22;21290;50.158;8.658;2023-02-28T09:02:13;20.80;40.60
35111;DHT22;21290;50.158;8.658;2023-02-28T09:04:41;21.20;39.80
35111;DHT22;21290;50.158;8.658;2023-02-28T09:07:08;21.20;39.60
35111;DHT22;21290;50.158;8.658;2023-02-28T09:09:34;20.50;39.20
35111;DHT22;21290;50.158;8.658;2023-02-28T09:12:01;21.10;39.80
35111;DHT22;21290;50.158;8.658;2023-02-28T09:14:29;20.60;39.30
35111;DHT22;21290;50.158;8.658;2023-02-28T09:16:56;21.20;39.30
35111;DHT22;21290;50.158;8.658;2023-02-28T09:19:23;20.30;38.80
35111;DHT22;21290;50.158;8.658;2023-02-28T09:21:51;21.00;39.10
35111;DHT22;21290;50.158;8.658;2023-02-28T09:24:18;20.20;39.40
35111;DHT22;21290;50.158;8.658;2023-02-28T09:26:47;20.60;38.50
35111;DHT22;21290;50.158;8.658;2023-02-28T09:29:31;21.10;37.20
35111;DHT22;21290;50.158;8.658;2023-02-28T09:31:59;21.10;37.30
35111;DHT22;21290;50.158;8.658;2023-02-28T09:34:28;21.40;37.40
35111;DHT22;21290;50.158;8.658;2023-02-28T09:36:58;21.30;36.80
35111;DHT22;21290;50.158;8.658;2023-02-28T09:39:26;21.80;36.70
35111;DHT22;21290;50.158;8.658;2023-02-28T09:41:55;22.30;36.50
35111;DHT22;21290;50.158;8.658;2023-02-28T09:44:45;21.60;36.30
35111;DHT22;21290;50.158;8.658;2023-02-28T09:47:27;21.10;36.20
35111;DHT22;21290;50.158;8.658;2023-02-28T09:49:59;21.00;37.00
35111;DHT22;21290;50.158;8.658;2023-02-28T09:52:34;20.60;37.20
35111;DHT22;21290;50.158;8.658;2023-02-28T09:55:38;20.70;37.90
35111;DHT22;21290;50.158;8.658;2023-02-28T09:58:37;20.60;37.20
35111;DHT22;21290;50.158;8.658;2023-02-28T10:07:21;18.10;37.60
35111;DHT22;21290;50.158;8.658;2023-02-28T10:09:55;16.80;39.40
35111;DHT22;21290;50.158;8.658;2023-02-28T10:12:25;17.40;40.50
35111;DHT22;21290;50.158;8.658;2023-02-28T10:14:58;18.20;39.80
35111;DHT22;21290;50.158;8.658;2023-02-28T10:17:36;16.90;40.50
35111;DHT22;21290;50.158;8.658;2023-02-28T10:20:23;16.00;41.90
35111;DHT22;21290;50.158;8.658;2023-02-28T10:23:03;13.90;43.10
35111;DHT22;21290;50.158;8.658;2023-02-28T10:25:38;12.30;44.80
35111;DHT22;21290;50.158;8.658;2023-02-28T10:28:16;11.00;47.60
35111;DHT22;21290;50.158;8.658;2023-02-28T10:30:49;9.80;48.80
35111;DHT22;21290;50.158;8.658;2023-02-28T10:33:32;9.40;51.70
35111;DHT22;21290;50.158;8.658;2023-02-28T10:36:02;8.90;51.20
35111;DHT22;21290;50.158;8.658;2023-02-28T10:38:37;8.80;51.70
35111;DHT22;21290;50.158;8.658;2023-02-28T10:41:10;8.90;51.30
35111;DHT22;21290;50.158;8.658;2023-02-28T10:43:41;9.20;51.20
35111;DHT22;21290;50.158;8.658;2023-02-28T10:46:17;9.90;51.40
35111;DHT22;21290;50.158;8.658;2023-02-28T10:49:12;11.80;49.40
35111;DHT22;21290;50.158;8.658;2023-02-28T10:51:41;14.90;46.00
35111;DHT22;21290;50.158;8.658;2023-02-28T10:54:19;16.70;43.50
35111;DHT22;21290;50.158;8.658;2023-02-28T10:57:15;18.40;41.90
35111;DHT22;21290;50.158;8.658;2023-02-28T10:59:44;20.00;39.10
35111;DHT22;21290;50.158;8.658;2023-02-28T11:02:31;18.80;37.70
35111;DHT22;21290;50.158;8.658;2023-02-28T11:05:00;18.30;40.10
35111;DHT22;21290;50.158;8.658;2023-02-28T11:07:27;17.90;40.80
35111;DHT22;21290;50.158;8.658;2023-02-28T11:10:06;17.70;40.10
35111;DHT22;21290;50.158;8.658;2023-02-28T11:12:38;19.20;40.10
35111;DHT22;21290;50.158;8.658;2023-02-28T11:15:26;20.30;37.80
35111;DHT22;21290;50.158;8.658;2023-02-28T11:17:57;21.70;37.20
35111;DHT22;21290;50.158;8.658;2023-02-28T11:20:28;22.50;36.70
35111;DHT22;21290;50.158;8.658;2023-02-28T11:22:56;23.10;36.30
35111;DHT22;21290;50.158;8.658;2023-02-28T11:25:26;23.90;35.60
35111;DHT22;21290;50.158;8.658;2023-02-28T11:28:00;24.60;34.90
35111;DHT22;21290;50.158;8.658;2023-02-28T11:30:35;24.30;34.60
35111;DHT22;21290;50.158;8.658;2023-02-28T11:35:48;24.20;34.30
35111;DHT22;21290;50.158;8.658;2023-02-28T11:38:15;24.20;34.30
35111;DHT22;21290;50.158;8.658;2023-02-28T11:43:53;21.80;34.70
35111;DHT22;21290;50.158;8.658;2023-02-28T11:51:32;22.20;35.20
35111;DHT22;21290;50.158;8.658;2023-02-28T11:54:08;21.00;35.90
35111;DHT22;21290;50.158;8.658;2023-02-28T11:56:48;20.70;36.20
35111;DHT22;21290;50.158;8.658;2023-02-28T11:59:39;20.80;37.30
35111;DHT22;21290;50.158;8.658;2023-02-28T12:02:35;20.80;36.70
35111;DHT22;21290;50.158;8.658;2023-02-28T12:05:24;20.80;37.20
35111;DHT22;21290;50.158;8.658;2023-02-28T12:08:06;20.70;37.00
35111;DHT22;21290;50.158;8.658;2023-02-28T12:13:26;17.20;39.40
35111;DHT22;21290;50.158;8.658;2023-02-28T12:16:17;14.90;42.10
35111;DHT22;21290;50.158;8.658;2023-02-28T12:20:05;13.80;43.90
35111;DHT22;21290;50.158;8.658;2023-02-28T12:25:20;12.60;46.30
35111;DHT22;21290;50.158;8.658;2023-02-28T12:27:49;12.40;47.10
35111;DHT22;21290;50.158;8.658;2023-02-28T12:33:07;12.60;47.50
35111;DHT22;21290;50.158;8.658;2023-02-28T12:35:51;12.40;46.60
35111;DHT22;21290;50.158;8.658;2023-02-28T12:38:22;12.20;46.80
35111;DHT22;21290;50.158;8.658;2023-02-28T12:40:54;12.20;47.90
35111;DHT22;21290;50.158;8.658;2023-02-28T12:43:27;12.00;48.20
35111;DHT22;21290;50.158;8.658;2023-02-28T12:46:00;11.80;48.00
35111;DHT22;21290;50.158;8.658;2023-02-28T12:51:24;11.40;49.10
35111;DHT22;21290;50.158;8.658;2023-02-28T12:54:11;11.30;49.80
35111;DHT22;21290;50.158;8.658;2023-02-28T13:00:15;11.00;49.70
35111;DHT22;21290;50.158;8.658;2023-02-28T13:02:51;10.70;49.60
35111;DHT22;21290;50.158;8.658;2023-02-28T13:05:36;10.60;50.40
35111;DHT22;21290;50.158;8.658;2023-02-28T13:10:46;10.50;50.10
35111;DHT22;21290;50.158;8.658;2023-02-28T13:13:16;10.50;50.30
35111;DHT22;21290;50.158;8.658;2023-02-28T13:15:58;10.40;50.30
35111;DHT22;21290;50.158;8.658;2023-02-28T13:18:32;10.30;50.10
35111;DHT22;21290;50.158;8.658;2023-02-28T13:21:00;10.00;50.30
35111;DHT22;21290;50.158;8.658;2023-02-28T13:26:03;10.00;52.00
35111;DHT22;21290;50.158;8.658;2023-02-28T13:29:04;10.00;51.40
35111;DHT22;21290;50.158;8.658;2023-02-28T13:39:48;9.70;51.60
35111;DHT22;21290;50.158;8.658;2023-02-28T13:47:41;8.80;54.00
35111;DHT22;21290;50.158;8.658;2023-02-28T14:02:12;8.90;53.40
35111;DHT22;21290;50.158;8.658;2023-02-28T14:05:13;8.90;55.10
35111;DHT22;21290;50.158;8.658;2023-02-28T14:07:49;9.00;54.50
35111;DHT22;21290;50.158;8.658;2023-02-28T14:10:29;9.00;54.80
35111;DHT22;21290;50.158;8.658;2023-02-28T14:13:00;9.00;54.90
35111;DHT22;21290;50.158;8.658;2023-02-28T14:15:38;9.00;54.50
35111;DHT22;21290;50.158;8.658;2023-02-28T14:18:22;9.00;54.90
35111;DHT22;21290;50.158;8.658;2023-02-28T14:20:57;8.90;54.70
35111;DHT22;21290;50.158;8.658;2023-02-28T14:26:49;8.90;55.10
35111;DHT22;21290;50.158;8.658;2023-02-28T14:32:47;8.40;56.20
35111;DHT22;21290;50.158;8.658;2023-02-28T14:35:57;8.30;56.30
35111;DHT22;21290;50.158;8.658;2023-02-28T14:38:32;8.30;55.50
35111;DHT22;21290;50.158;8.658;2023-02-28T14:41:04;8.40;55.90
35111;DHT22;21290;50.158;8.658;2023-02-28T14:43:33;8.30;56.10
35111;DHT22;21290;50.158;8.658;2023-02-28T14:46:02;8.30;56.50
35111;DHT22;21290;50.158;8.658;2023-02-28T14:48:29;8.30;55.90
35111;DHT22;21290;50.158;8.658;2023-02-28T14:50:57;8.30;56.80
35111;DHT22;21290;50.158;8.658;2023-02-28T14:53:30;8.30;56.60
35111;DHT22;21290;50.158;8.658;2023-02-28T14:56:01;8.20;56.70
35111;DHT22;21290;50.158;8.658;2023-02-28T14:58:30;8.20;56.90
35111;DHT22;21290;50.158;8.658;2023-02-28T15:01:00;8.10;56.00
35111;DHT22;21290;50.158;8.658;2023-02-28T15:03:37;7.90;56.50
35111;DHT22;21290;50.158;8.658;2023-02-28T15:06:11;7.80;57.00
35111;DHT22;21290;50.158;8.658;2023-02-28T15:08:38;7.70;57.40
35111;DHT22;21290;50.158;8.658;2023-02-28T15:11:09;7.70;57.70
35111;DHT22;21290;50.158;8.658;2023-02-28T15:13:53;7.60;57.80
35111;DHT22;21290;50.158;8.658;2023-02-28T15:16:22;7.70;58.10
35111;DHT22;21290;50.158;8.658;2023-02-28T15:18:55;7.60;57.90
35111;DHT22;21290;50.158;8.658;2023-02-28T15:21:26;7.70;58.30
35111;DHT22;21290;50.158;8.658;2023-02-28T15:24:00;7.60;58.50
35111;DHT22;21290;50.158;8.658;2023-02-28T15:26:39;7.50;58.40
35111;DHT22;21290;50.158;8.658;2023-02-28T15:29:17;7.30;58.60
35111;DHT22;21290;50.158;8.658;2023-02-28T15:32:00;7.30;59.20
35111;DHT22;21290;50.158;8.658;2023-02-28T15:34:42;7.30;59.50
35111;DHT22;21290;50.158;8.658;2023-02-28T15:37:38;7.20;59.50
35111;DHT22;21290;50.158;8.658;2023-02-28T15:40:16;7.20;59.60
35111;DHT22;21290;50.158;8.658;2023-02-28T15:43:14;7.10;60.00
35111;DHT22;21290;50.158;8.658;2023-02-28T15:45:49;7.10;60.50
35111;DHT22;21290;50.158;8.658;2023-02-28T15:50:54;6.80;60.70
35111;DHT22;21290;50.158;8.658;2023-02-28T15:53:24;6.80;61.60
35111;DHT22;21290;50.158;8.658;2023-02-28T15:55:55;6.60;61.00
35111;DHT22;21290;50.158;8.658;2023-02-28T15:58:22;6.50;62.20
35111;DHT22;21290;50.158;8.658;2023-02-28T16:01:46;6.40;62.20
35111;DHT22;21290;50.158;8.658;2023-02-28T16:04:05;6.30;62.30
35111;DHT22;21290;50.158;8.658;2023-02-28T16:06:45;6.20;62.90
35111;DHT22;21290;50.158;8.658;2023-02-28T16:09:16;6.20;63.60
35111;DHT22;21290;50.158;8.658;2023-02-28T16:11:46;6.10;64.20
35111;DHT22;21290;50.158;8.658;2023-02-28T16:14:18;6.00;65.00
35111;DHT22;21290;50.158;8.658;2023-02-28T16:16:48;6.00;65.20
35111;DHT22;21290;50.158;8.658;2023-02-28T16:19:15;5.90;64.90
35111;DHT22;21290;50.158;8.658;2023-02-28T16:21:42;5.80;65.50
35111;DHT22;21290;50.158;8.658;2023-02-28T16:24:09;5.70;65.90
35111;DHT22;21290;50.158;8.658;2023-02-28T16:26:36;5.70;66.60
35111;DHT22;21290;50.158;8.658;2023-02-28T16:29:06;5.60;66.80
35111;DHT22;21290;50.158;8.658;2023-02-28T16:31:37;5.50;67.00
35111;DHT22;21290;50.158;8.658;2023-02-28T16:34:04;5.50;67.60
35111;DHT22;21290;50.158;8.658;2023-02-28T16:36:31;5.40;67.80
35111;DHT22;21290;50.158;8.658;2023-02-28T16:38:58;5.30;68.90
35111;DHT22;21290;50.158;8.658;2023-02-28T16:41:26;5.20;69.10
35111;DHT22;21290;50.158;8.658;2023-02-28T16:43:55;5.10;69.40
35111;DHT22;21290;50.158;8.658;2023-02-28T16:46:44;5.10;70.20
35111;DHT22;21290;50.158;8.658;2023-02-28T16:49:11;5.00;70.80
35111;DHT22;21290;50.158;8.658;2023-02-28T16:51:39;4.90;70.40
35111;DHT22;21290;50.158;8.658;2023-02-28T16:54:05;4.80;70.80
35111;DHT22;21290;50.158;8.658;2023-02-28T16:56:32;4.70;71.30
35111;DHT22;21290;50.158;8.658;2023-02-28T16:59:01;4.60;71.90
35111;DHT22;21290;50.158;8.658;2023-02-28T17:01:28;4.50;72.50
35111;DHT22;21290;50.158;8.658;2023-02-28T17:03:55;4.40;73.20
35111;DHT22;21290;50.158;8.658;2023-02-28T17:06:25;4.40;73.30
35111;DHT22;21290;50.158;8.658;2023-02-28T17:08:54;4.30;74.70
35111;DHT22;21290;50.158;8.658;2023-02-28T17:11:21;4.20;75.10
35111;DHT22;21290;50.158;8.658;2023-02-28T17:13:48;4.10;75.50
35111;DHT22;21290;50.158;8.658;2023-02-28T17:16:33;4.10;76.70
35111;DHT22;21290;50.158;8.658;2023-02-28T17:19:04;4.00;77.70
35111;DHT22;21290;50.158;8.658;2023-02-28T17:21:32;3.90;78.70
35111;DHT22;21290;50.158;8.658;2023-02-28T17:23:59;3.80;80.30
35111;DHT22;21290;50.158;8.658;2023-02-28T17:26:26;3.70;81.30
35111;DHT22;21290;50.158;8.658;2023-02-28T17:28:55;3.60;82.80
35111;DHT22;21290;50.158;8.658;2023-02-28T17:31:24;3.50;84.70
35111;DHT22;21290;50.158;8.658;2023-02-28T17:33:51;3.50;86.30
35111;DHT22;21290;50.158;8.658;2023-02-28T17:36:25;3.40;87.10
35111;DHT22;21290;50.158;8.658;2023-02-28T17:38:54;3.30;88.50
35111;DHT22;21290;50.158;8.658;2023-02-28T17:41:25;3.30;90.30
35111;DHT22;21290;50.158;8.658;2023-02-28T17:43:52;3.20;91.00
35111;DHT22;21290;50.158;8.658;2023-02-28T17:46:21;3.10;91.30
35111;DHT22;21290;50.158;8.658;2023-02-28T17:48:49;3.10;92.00